Bullock, North Carolina
Current Conditions -  °F | °C
As of 2:55 PM on Thursday 30 Oct 2014 (Local Time) from KW63 Reporting Station
Scattered Clouds Scattered Clouds  
Wind Chill: 64°   Ceiling: Unl
Heat Index: 64°   Visibility: 10mi
Dew Point: 41°   Wind: 3mph
Humidity: 42%   Direction: 90°E
Pressure: 29.99"   Gusts: NA
Location:  36.49°N, 78.55°W
Report Text: KW63 301855Z AUTO 09003KT 10SM SCT055 18/05 A2999 RMK AO1
Loading
Personal Weather Stations






























Interactive Weather Map
Tropical Storm Tracking
New forecast layout! Learn more

10-Day Weather Forecast

Advertisements
Track Severe Weather on mobile